createdAt,value
2018-12-16T00:00:09.408Z,18.20
2018-12-16T00:02:12.348Z,17.83
2018-12-16T00:04:15.438Z,17.80
2018-12-16T00:06:20.578Z,18.47
2018-12-16T00:08:23.236Z,18.62
2018-12-16T00:10:25.933Z,18.75
2018-12-16T00:12:28.792Z,19.33
2018-12-16T00:14:31.543Z,20.60
2018-12-16T00:16:34.319Z,19.27
2018-12-16T00:18:36.961Z,17.77
2018-12-16T00:20:39.682Z,19.83
2018-12-16T00:22:42.375Z,19.17
2018-12-16T00:24:45.643Z,18.50
2018-12-16T00:27:00.168Z,17.33
2018-12-16T00:29:02.839Z,18.70
2018-12-16T00:31:06.043Z,19.07
2018-12-16T00:33:08.777Z,16.80
2018-12-16T00:35:11.642Z,19.73
2018-12-16T00:37:14.606Z,18.55
2018-12-16T00:39:17.954Z,18.07
2018-12-16T00:41:20.551Z,19.10
2018-12-16T00:43:26.844Z,17.10
2018-12-16T00:45:29.916Z,18.17
2018-12-16T00:47:33.284Z,18.77
2018-12-16T00:49:35.917Z,19.07
2018-12-16T00:51:38.515Z,18.97
2018-12-16T00:53:41.176Z,19.03
2018-12-16T00:55:43.975Z,18.50
2018-12-16T00:57:46.730Z,18.60
2018-12-16T00:59:51.863Z,16.80
2018-12-16T01:01:54.990Z,20.27
2018-12-16T01:03:57.685Z,20.07
2018-12-16T01:06:00.275Z,18.50
2018-12-16T01:08:02.874Z,18.23
2018-12-16T01:10:08.113Z,18.12
2018-12-16T01:12:11.082Z,20.10
2018-12-16T01:14:15.218Z,19.07
2018-12-16T01:16:17.907Z,19.03
2018-12-16T01:18:20.742Z,18.13
2018-12-16T01:20:24.264Z,19.80
2018-12-16T01:22:26.862Z,19.20
2018-12-16T01:24:30.787Z,17.57
2018-12-16T01:26:33.443Z,18.60
2018-12-16T01:28:36.980Z,18.00
2018-12-16T01:30:39.617Z,17.87
2018-12-16T01:32:42.401Z,18.00
2018-12-16T01:34:45.048Z,18.80
2018-12-16T01:36:47.698Z,18.87
2018-12-16T01:38:50.384Z,17.60
2018-12-16T01:40:53.918Z,18.73
2018-12-16T01:42:57.440Z,18.13
2018-12-16T01:45:00.123Z,17.93
2018-12-16T01:47:03.672Z,18.63
2018-12-16T01:49:06.487Z,18.83
2018-12-16T01:51:11.643Z,17.70
2018-12-16T01:53:14.433Z,16.97
2018-12-16T01:55:18.066Z,19.83
2018-12-16T01:57:21.129Z,20.17
2018-12-16T01:59:25.676Z,18.57
2018-12-16T02:01:28.740Z,21.27
2018-12-16T02:03:31.871Z,19.23
2018-12-16T02:05:34.605Z,19.70
2018-12-16T02:07:37.384Z,20.30
2018-12-16T02:09:40.287Z,21.07
2018-12-16T02:11:44.072Z,21.80
2018-12-16T02:13:46.852Z,20.37
2018-12-16T02:15:49.649Z,21.80
2018-12-16T02:17:54.762Z,21.47
2018-12-16T02:19:58.301Z,18.40
2018-12-16T02:22:02.386Z,20.27
2018-12-16T02:24:05.026Z,20.70
2018-12-16T02:26:08.574Z,22.30
2018-12-16T02:28:12.112Z,20.00
2018-12-16T02:30:16.775Z,22.10
2018-12-16T02:32:21.051Z,20.70
2018-12-16T02:34:23.705Z,22.50
2018-12-16T02:36:26.582Z,20.93
2018-12-16T02:38:29.206Z,21.03
2018-12-16T02:40:32.899Z,21.87
2018-12-16T02:42:35.594Z,21.70
2018-12-16T02:44:38.232Z,20.73
2018-12-16T02:46:41.784Z,22.95
2018-12-16T02:48:44.582Z,20.82
2018-12-16T02:50:47.450Z,20.52
2018-12-16T02:52:50.293Z,22.60
2018-12-16T02:54:53.021Z,20.08
2018-12-16T02:56:56.357Z,21.50
2018-12-16T02:58:59.155Z,21.40
2018-12-16T03:01:02.059Z,22.17
2018-12-16T03:03:05.732Z,19.40
2018-12-16T03:05:09.215Z,22.80
2018-12-16T03:07:11.878Z,20.30
2018-12-16T03:09:14.485Z,21.80
2018-12-16T03:11:17.123Z,20.97
2018-12-16T03:13:19.763Z,20.50
2018-12-16T03:15:22.386Z,22.17
2018-12-16T03:17:25.041Z,20.80
2018-12-16T03:19:27.638Z,21.40
2018-12-16T03:21:30.281Z,19.63
2018-12-16T03:23:32.863Z,21.73
2018-12-16T03:25:35.484Z,20.00
2018-12-16T03:27:38.087Z,22.47
2018-12-16T03:29:40.705Z,21.67
2018-12-16T03:31:44.629Z,19.73
2018-12-16T03:33:47.238Z,22.57
2018-12-16T03:35:49.845Z,21.90
2018-12-16T03:37:52.477Z,21.17
2018-12-16T03:39:55.280Z,20.70
2018-12-16T03:41:57.893Z,21.77
2018-12-16T03:44:00.487Z,21.87
2018-12-16T03:46:03.137Z,23.07
2018-12-16T03:48:05.775Z,23.10
2018-12-16T03:50:08.473Z,23.47
2018-12-16T03:52:11.116Z,21.70
2018-12-16T03:54:13.702Z,21.50
2018-12-16T03:56:16.320Z,21.40
2018-12-16T03:58:18.969Z,21.00
2018-12-16T04:00:21.680Z,21.05
2018-12-16T04:02:24.350Z,21.47
2018-12-16T04:04:27.044Z,20.57
2018-12-16T04:06:29.608Z,20.50
2018-12-16T04:08:32.235Z,21.97
2018-12-16T04:10:34.854Z,22.63
2018-12-16T04:12:37.502Z,22.50
2018-12-16T04:14:41.341Z,22.30
2018-12-16T04:16:44.258Z,22.50
2018-12-16T04:18:46.862Z,21.90
2018-12-16T04:20:49.459Z,21.30
2018-12-16T04:22:52.083Z,22.83
2018-12-16T04:24:54.733Z,22.07
2018-12-16T04:26:57.352Z,22.93
2018-12-16T04:28:59.970Z,21.90
2018-12-16T04:31:02.565Z,21.57
2018-12-16T04:33:05.195Z,22.73
2018-12-16T04:35:07.792Z,21.90
2018-12-16T04:37:10.598Z,22.73
2018-12-16T04:39:13.302Z,22.13
2018-12-16T04:41:15.934Z,22.73
2018-12-16T04:43:18.603Z,22.00
2018-12-16T04:45:21.220Z,21.27
2018-12-16T04:47:23.884Z,21.83
2018-12-16T04:49:26.562Z,22.33
2018-12-16T04:51:29.169Z,20.83
2018-12-16T04:53:35.904Z,21.43
2018-12-16T04:55:36.479Z,21.27
2018-12-16T04:57:39.116Z,22.30
2018-12-16T04:59:41.709Z,22.62
2018-12-16T05:01:45.126Z,22.67
2018-12-16T05:03:47.774Z,20.77
2018-12-16T05:05:50.364Z,22.83
2018-12-16T05:07:53.098Z,21.00
2018-12-16T05:10:00.249Z,22.57
2018-12-16T05:12:02.866Z,21.00
2018-12-16T05:14:05.479Z,21.50
2018-12-16T05:16:08.078Z,21.20
2018-12-16T05:18:10.708Z,22.33
2018-12-16T05:20:13.326Z,21.20
2018-12-16T05:22:15.915Z,22.97
2018-12-16T05:24:18.589Z,21.67
2018-12-16T05:26:21.207Z,21.60
2018-12-16T05:28:23.852Z,24.00
2018-12-16T05:30:26.442Z,24.53
2018-12-16T05:32:29.056Z,24.83
2018-12-16T05:34:31.686Z,23.67
2018-12-16T05:36:34.281Z,23.30
2018-12-16T05:38:36.911Z,23.73
2018-12-16T05:40:39.514Z,22.20
2018-12-16T05:42:42.134Z,21.90
2018-12-16T05:44:44.744Z,22.40
2018-12-16T05:46:47.354Z,23.30
2018-12-16T05:48:50.003Z,23.47
2018-12-16T05:50:52.612Z,25.87
2018-12-16T05:52:56.730Z,26.33
2018-12-16T05:54:59.490Z,28.77
2018-12-16T05:57:02.095Z,26.20
2018-12-16T05:59:04.737Z,26.67
2018-12-16T06:01:07.337Z,23.80
2018-12-16T06:03:09.957Z,21.97
2018-12-16T06:05:12.570Z,22.13
2018-12-16T06:07:15.193Z,23.67
2018-12-16T06:09:18.227Z,21.80
2018-12-16T06:11:20.909Z,21.23
2018-12-16T06:13:23.507Z,23.57
2018-12-16T06:15:26.121Z,22.77
2018-12-16T06:17:28.718Z,20.10
2018-12-16T06:19:31.353Z,20.17
2018-12-16T06:21:34.478Z,21.47
2018-12-16T06:23:37.117Z,22.00
2018-12-16T06:25:39.746Z,23.00
2018-12-16T06:27:43.377Z,20.83
2018-12-16T06:29:46.419Z,21.10
2018-12-16T06:31:49.031Z,21.60
2018-12-16T06:33:51.755Z,21.77
2018-12-16T06:35:54.338Z,21.93
2018-12-16T06:37:56.958Z,21.63
2018-12-16T06:39:59.662Z,23.70
2018-12-16T06:42:02.265Z,21.00
2018-12-16T06:44:05.791Z,22.00
2018-12-16T06:46:08.358Z,21.03
2018-12-16T06:48:10.951Z,21.80
2018-12-16T06:50:13.569Z,21.03
2018-12-16T06:52:16.176Z,23.23
2018-12-16T06:54:18.845Z,22.10
2018-12-16T06:56:21.465Z,22.27
2018-12-16T06:58:24.087Z,24.73
2018-12-16T07:00:27.115Z,23.00
2018-12-16T07:02:29.727Z,23.47
2018-12-16T07:04:32.360Z,22.90
2018-12-16T07:06:34.963Z,24.50
2018-12-16T07:08:37.624Z,25.20
2018-12-16T07:10:40.264Z,23.17
2018-12-16T07:12:44.166Z,23.03
2018-12-16T07:14:46.937Z,23.90
2018-12-16T07:16:49.521Z,21.90
2018-12-16T07:18:52.157Z,20.90
2018-12-16T07:20:54.802Z,23.53
2018-12-16T07:22:57.466Z,26.90
2018-12-16T07:25:00.153Z,28.67
2018-12-16T07:27:02.761Z,36.17
2018-12-16T07:29:06.823Z,33.23
2018-12-16T07:31:09.479Z,24.37
2018-12-16T07:33:12.124Z,23.80
2018-12-16T07:35:14.771Z,24.40
2018-12-16T07:37:19.185Z,21.63
2018-12-16T07:39:22.218Z,22.20
2018-12-16T07:41:24.841Z,24.40
2018-12-16T07:43:27.535Z,21.90
2018-12-16T07:45:30.380Z,22.73
2018-12-16T07:47:32.981Z,22.90
2018-12-16T07:49:35.635Z,22.93
2018-12-16T07:51:38.276Z,23.23
2018-12-16T07:53:40.890Z,21.53
2018-12-16T07:55:43.999Z,21.77
2018-12-16T07:57:46.662Z,22.67
2018-12-16T07:59:49.425Z,24.27
2018-12-16T08:01:52.040Z,28.10
2018-12-16T08:03:54.796Z,28.33
2018-12-16T08:05:57.449Z,27.90
2018-12-16T08:08:00.085Z,24.67
2018-12-16T08:10:02.793Z,24.70
2018-12-16T08:12:05.407Z,24.13
2018-12-16T08:14:07.996Z,25.57
2018-12-16T08:16:11.646Z,24.53
2018-12-16T08:18:14.223Z,27.00
2018-12-16T08:20:16.873Z,25.27
2018-12-16T08:22:19.487Z,26.77
2018-12-16T08:24:23.325Z,25.67
2018-12-16T08:26:26.248Z,25.67
2018-12-16T08:28:28.836Z,25.30
2018-12-16T08:30:31.473Z,27.13
2018-12-16T08:32:34.042Z,26.70
2018-12-16T08:34:36.702Z,25.60
2018-12-16T08:36:39.306Z,25.43
2018-12-16T08:38:41.896Z,25.10
2018-12-16T08:40:44.509Z,27.23
2018-12-16T08:42:47.350Z,28.33
2018-12-16T08:44:50.001Z,26.87
2018-12-16T08:46:52.645Z,28.47
2018-12-16T08:48:55.270Z,24.33
2018-12-16T08:50:57.967Z,25.87
2018-12-16T08:53:00.581Z,28.03
2018-12-16T08:55:03.645Z,25.97
2018-12-16T08:57:06.263Z,27.80
2018-12-16T08:59:09.159Z,26.27
2018-12-16T09:01:12.333Z,27.57
2018-12-16T09:03:15.007Z,27.67
2018-12-16T09:05:17.637Z,25.97
2018-12-16T09:07:20.362Z,28.10
2018-12-16T09:09:23.226Z,28.07
2018-12-16T09:11:26.822Z,28.07
2018-12-16T09:13:29.985Z,27.63
2018-12-16T09:15:32.608Z,29.40
2018-12-16T09:17:35.210Z,28.20
2018-12-16T09:19:37.787Z,28.03
2018-12-16T09:21:40.492Z,29.90
2018-12-16T09:23:44.063Z,28.80
2018-12-16T09:25:46.727Z,29.73
2018-12-16T09:27:49.297Z,29.77
2018-12-16T09:29:51.905Z,29.03
2018-12-16T09:31:54.552Z,27.27
2018-12-16T09:33:57.135Z,28.07
2018-12-16T09:35:59.815Z,30.50
2018-12-16T09:38:03.010Z,27.90
2018-12-16T09:40:06.642Z,29.97
2018-12-16T09:42:09.238Z,31.40
2018-12-16T09:44:11.896Z,31.30
2018-12-16T09:46:14.542Z,30.60
2018-12-16T09:48:17.168Z,30.37
2018-12-16T09:50:19.823Z,29.53
2018-12-16T09:52:23.646Z,30.07
2018-12-16T09:54:26.583Z,30.53
2018-12-16T09:56:29.242Z,29.27
2018-12-16T09:58:31.826Z,30.50
2018-12-16T10:00:34.426Z,28.83
2018-12-16T10:02:37.050Z,30.20
2018-12-16T10:04:39.640Z,32.73
2018-12-16T10:06:42.286Z,33.30
2018-12-16T10:08:44.987Z,32.83
2018-12-16T10:10:47.644Z,29.20
2018-12-16T10:12:50.219Z,33.43
2018-12-16T10:14:52.818Z,34.20
2018-12-16T10:16:56.506Z,38.73
2018-12-16T10:18:59.225Z,34.00
2018-12-16T10:21:01.835Z,32.60
2018-12-16T10:23:04.597Z,35.23
2018-12-16T10:25:07.366Z,32.47
2018-12-16T10:27:10.107Z,32.30
2018-12-16T10:29:12.682Z,34.27
2018-12-16T10:31:15.300Z,32.07
2018-12-16T10:33:18.896Z,32.93
2018-12-16T10:35:22.203Z,30.37
2018-12-16T10:37:24.835Z,29.97
2018-12-16T10:39:27.641Z,30.03
2018-12-16T10:41:30.347Z,29.37
2018-12-16T10:43:32.972Z,30.93
2018-12-16T10:45:35.618Z,30.90
2018-12-16T10:47:38.212Z,28.73
2018-12-16T10:49:40.840Z,28.17
2018-12-16T10:51:43.471Z,28.03
2018-12-16T10:53:46.054Z,29.23
2018-12-16T10:55:48.675Z,28.53
2018-12-16T10:57:52.917Z,31.50
2018-12-16T10:59:55.485Z,29.77
2018-12-16T11:01:58.138Z,30.77
2018-12-16T11:04:01.595Z,29.67
2018-12-16T11:06:04.277Z,31.80
2018-12-16T11:08:06.914Z,29.30
2018-12-16T11:10:10.823Z,29.43
2018-12-16T11:12:13.432Z,28.50
2018-12-16T11:14:16.036Z,26.80
2018-12-16T11:16:18.649Z,28.07
2018-12-16T11:18:21.235Z,34.93
2018-12-16T11:20:24.145Z,34.80
2018-12-16T11:22:26.757Z,31.30
2018-12-16T11:24:29.381Z,33.20
2018-12-16T11:26:31.971Z,34.57
2018-12-16T11:28:34.546Z,33.57
2018-12-16T11:30:37.143Z,33.00
2018-12-16T11:32:39.760Z,31.63
2018-12-16T11:34:42.373Z,31.80
2018-12-16T11:36:45.030Z,31.87
2018-12-16T11:38:47.666Z,30.70
2018-12-16T11:40:50.282Z,28.00
2018-12-16T11:42:53.004Z,31.77
2018-12-16T11:44:55.623Z,31.83
2018-12-16T11:46:58.284Z,28.67
2018-12-16T11:49:00.924Z,30.00
2018-12-16T11:51:03.505Z,28.73
2018-12-16T11:53:06.146Z,26.53
2018-12-16T11:55:12.815Z,27.37
2018-12-16T11:57:13.404Z,26.87
2018-12-16T11:59:15.980Z,25.73
2018-12-16T12:01:18.649Z,25.37
2018-12-16T12:03:21.225Z,23.73
2018-12-16T12:05:23.841Z,25.13
2018-12-16T12:07:26.491Z,24.60
2018-12-16T12:09:29.063Z,23.17
2018-12-16T12:11:31.665Z,25.13
2018-12-16T12:13:34.261Z,24.70
2018-12-16T12:15:36.844Z,25.30
2018-12-16T12:17:39.457Z,25.43
2018-12-16T12:19:42.094Z,25.37
2018-12-16T12:21:44.706Z,24.53
2018-12-16T12:23:47.313Z,25.40
2018-12-16T12:25:49.900Z,25.50
2018-12-16T12:27:53.325Z,26.33
2018-12-16T12:29:56.025Z,26.80
2018-12-16T12:31:59.036Z,26.33
2018-12-16T12:34:02.489Z,26.30
2018-12-16T12:36:05.138Z,27.57
2018-12-16T12:38:08.661Z,28.27
2018-12-16T12:40:15.144Z,27.57
2018-12-16T12:42:20.520Z,26.90
2018-12-16T12:44:27.514Z,26.97
2018-12-16T12:46:36.072Z,26.67
2018-12-16T12:48:44.035Z,25.60
2018-12-16T12:50:50.916Z,24.80
2018-12-16T12:53:00.044Z,30.20
2018-12-16T12:55:03.239Z,28.90
2018-12-16T12:57:05.961Z,33.20
2018-12-16T12:59:08.674Z,27.70
2018-12-16T13:01:11.290Z,30.70
2018-12-16T13:03:13.959Z,29.40
2018-12-16T13:05:16.583Z,26.37
2018-12-16T13:07:19.547Z,27.17
2018-12-16T13:09:22.153Z,25.10
2018-12-16T13:11:24.880Z,27.47
2018-12-16T13:13:27.525Z,24.93
2018-12-16T13:15:30.172Z,23.10
2018-12-16T13:17:33.222Z,22.93
2018-12-16T13:19:36.739Z,24.50
2018-12-16T13:21:39.608Z,25.20
2018-12-16T13:23:42.256Z,21.87
2018-12-16T13:25:56.760Z,24.67
2018-12-16T13:27:59.398Z,25.07
2018-12-16T13:30:02.486Z,23.47
2018-12-16T13:32:05.172Z,25.07
2018-12-16T13:34:08.364Z,25.40
2018-12-16T13:36:11.232Z,26.17
2018-12-16T13:38:13.995Z,31.23
2018-12-16T13:40:16.675Z,28.77
2018-12-16T13:42:19.287Z,29.20
2018-12-16T13:44:22.008Z,26.70
2018-12-16T13:46:24.785Z,26.63
2018-12-16T13:48:27.418Z,28.13
2018-12-16T13:50:29.996Z,26.50
2018-12-16T13:52:32.565Z,24.80
2018-12-16T13:54:35.217Z,23.30
2018-12-16T13:56:37.857Z,26.20
2018-12-16T13:58:40.555Z,29.10
2018-12-16T14:00:43.291Z,28.43
2018-12-16T14:02:45.886Z,31.67
2018-12-16T14:04:48.577Z,28.80
2018-12-16T14:06:51.233Z,25.10
2018-12-16T14:08:53.977Z,22.70
2018-12-16T14:10:56.854Z,25.73
2018-12-16T14:12:59.944Z,22.97
2018-12-16T14:15:03.211Z,22.97
2018-12-16T14:17:05.790Z,21.63
2018-12-16T14:19:08.447Z,22.17
2018-12-16T14:21:11.276Z,23.37
2018-12-16T14:23:13.882Z,22.10
2018-12-16T14:25:16.849Z,20.20
2018-12-16T14:27:19.634Z,26.13
2018-12-16T14:29:22.304Z,25.80
2018-12-16T14:31:24.923Z,24.37
2018-12-16T14:33:27.734Z,21.97
2018-12-16T14:35:30.512Z,21.27
2018-12-16T14:37:33.759Z,20.50
2018-12-16T14:39:36.428Z,20.37
2018-12-16T14:41:39.078Z,20.83
2018-12-16T14:43:41.708Z,19.80
2018-12-16T14:45:44.451Z,19.83
2018-12-16T14:47:47.107Z,20.23
2018-12-16T14:49:49.768Z,20.27
2018-12-16T14:51:52.412Z,19.27
2018-12-16T14:53:54.992Z,19.27
2018-12-16T14:55:57.616Z,22.03
2018-12-16T14:58:00.231Z,18.70
2018-12-16T15:00:03.555Z,23.07
2018-12-16T15:02:06.171Z,21.20
2018-12-16T15:04:08.802Z,23.77
2018-12-16T15:06:11.481Z,23.50
2018-12-16T15:08:14.076Z,21.80
2018-12-16T15:10:16.686Z,24.23
2018-12-16T15:12:19.296Z,27.37
2018-12-16T15:14:21.885Z,23.30
2018-12-16T15:16:24.552Z,27.73
2018-12-16T15:18:27.182Z,27.70
2018-12-16T15:20:29.816Z,28.37
2018-12-16T15:22:33.392Z,27.60
2018-12-16T15:24:36.023Z,27.37
2018-12-16T15:26:38.800Z,29.83
2018-12-16T15:28:41.419Z,23.90
2018-12-16T15:30:44.137Z,24.73
2018-12-16T15:32:46.741Z,22.97
2018-12-16T15:34:50.059Z,23.80
2018-12-16T15:36:52.828Z,23.73
2018-12-16T15:38:55.428Z,21.30
2018-12-16T15:40:58.056Z,23.00
2018-12-16T15:43:00.714Z,23.07
2018-12-16T15:45:04.336Z,22.43
2018-12-16T15:47:06.995Z,23.80
2018-12-16T15:49:09.615Z,24.63
2018-12-16T15:51:12.253Z,31.60
2018-12-16T15:53:14.926Z,27.00
2018-12-16T15:55:17.552Z,26.60
2018-12-16T15:57:20.213Z,23.23
2018-12-16T15:59:22.919Z,25.97
2018-12-16T16:01:25.735Z,23.20
2018-12-16T16:03:28.764Z,22.20
2018-12-16T16:05:31.532Z,22.87
2018-12-16T16:07:34.180Z,24.50
2018-12-16T16:09:36.779Z,34.37
2018-12-16T16:11:39.411Z,33.10
2018-12-16T16:13:41.998Z,28.50
2018-12-16T16:15:44.599Z,26.00
2018-12-16T16:17:47.234Z,26.50
2018-12-16T16:19:50.345Z,26.10
2018-12-16T16:21:52.985Z,28.47
2018-12-16T16:23:55.600Z,31.20
2018-12-16T16:25:58.189Z,28.73
2018-12-16T16:28:00.893Z,25.70
2018-12-16T16:30:05.769Z,56.30
2018-12-16T16:32:08.424Z,43.23
2018-12-16T16:34:10.990Z,51.43
2018-12-16T16:36:13.590Z,45.93
2018-12-16T16:38:16.201Z,42.53
2018-12-16T16:40:18.957Z,47.00
2018-12-16T16:42:21.598Z,48.60
2018-12-16T16:44:24.177Z,41.83
2018-12-16T16:46:27.264Z,40.07
2018-12-16T16:48:29.961Z,39.90
2018-12-16T16:50:32.603Z,40.50
2018-12-16T16:52:35.443Z,39.07
2018-12-16T16:54:38.021Z,38.30
2018-12-16T16:56:40.647Z,35.97
2018-12-16T16:58:43.304Z,31.83
2018-12-16T17:00:45.890Z,29.70
2018-12-16T17:02:48.524Z,27.90
2018-12-16T17:04:51.127Z,24.70
2018-12-16T17:06:53.701Z,26.00
2018-12-16T17:08:57.559Z,30.27
2018-12-16T17:11:01.097Z,29.77
2018-12-16T17:13:04.668Z,31.77
2018-12-16T17:15:07.368Z,33.37
2018-12-16T17:17:09.945Z,31.37
2018-12-16T17:19:12.952Z,30.10
2018-12-16T17:21:15.549Z,27.63
2018-12-16T17:23:18.178Z,27.70
2018-12-16T17:25:21.276Z,22.47
2018-12-16T17:27:23.859Z,21.17
2018-12-16T17:29:26.524Z,21.43
2018-12-16T17:31:29.136Z,22.00
2018-12-16T17:33:31.837Z,21.10
2018-12-16T17:35:34.469Z,20.80
2018-12-16T17:37:38.448Z,21.90
2018-12-16T17:39:41.075Z,18.90
2018-12-16T17:41:43.768Z,21.83
2018-12-16T17:43:46.407Z,20.00
2018-12-16T17:45:49.682Z,19.50
2018-12-16T17:47:52.450Z,18.50
2018-12-16T17:49:55.130Z,20.67
2018-12-16T17:51:58.271Z,19.67
2018-12-16T17:54:00.891Z,19.20
2018-12-16T17:56:03.779Z,21.00
2018-12-16T17:58:06.705Z,20.13
2018-12-16T18:00:10.047Z,18.00
2018-12-16T18:02:12.670Z,19.20
2018-12-16T18:04:15.345Z,17.67
2018-12-16T18:06:18.078Z,20.23
2018-12-16T18:08:21.445Z,19.60
2018-12-16T18:10:24.064Z,20.43
2018-12-16T18:12:26.709Z,20.97
2018-12-16T18:14:29.375Z,20.90
2018-12-16T18:16:32.000Z,20.80
2018-12-16T18:18:34.962Z,19.83
2018-12-16T18:20:37.655Z,19.53
2018-12-16T18:22:40.336Z,20.27
2018-12-16T18:24:43.353Z,24.73
2018-12-16T18:26:45.955Z,29.10
2018-12-16T18:28:48.594Z,24.80
2018-12-16T18:30:51.266Z,31.03
2018-12-16T18:32:53.903Z,27.73
2018-12-16T18:34:56.586Z,26.37
2018-12-16T18:37:00.125Z,24.67
2018-12-16T18:39:02.854Z,26.47
2018-12-16T18:41:05.466Z,31.67
2018-12-16T18:43:08.071Z,32.93
2018-12-16T18:45:10.749Z,44.17
2018-12-16T18:47:14.478Z,34.10
2018-12-16T18:49:17.131Z,36.93
2018-12-16T18:51:19.735Z,36.43
2018-12-16T18:53:23.063Z,34.40
2018-12-16T18:55:25.755Z,34.10
2018-12-16T18:57:28.361Z,33.30
2018-12-16T18:59:31.599Z,32.70
2018-12-16T19:01:34.185Z,31.70
2018-12-16T19:03:36.919Z,31.70
2018-12-16T19:05:40.838Z,29.43
2018-12-16T19:07:43.566Z,31.63
2018-12-16T19:09:48.083Z,32.10
2018-12-16T19:11:53.292Z,39.87
2018-12-16T19:13:57.643Z,44.03
2018-12-16T19:16:00.509Z,41.97
2018-12-16T19:18:03.738Z,41.30
2018-12-16T19:20:07.506Z,35.37
2018-12-16T19:22:11.535Z,35.10
2018-12-16T19:24:14.780Z,35.20
2018-12-16T19:26:18.554Z,36.57
2018-12-16T19:28:21.952Z,28.70
2018-12-16T19:30:25.235Z,29.47
2018-12-16T19:32:28.272Z,29.37
2018-12-16T19:34:31.622Z,28.43
2018-12-16T19:36:35.555Z,30.03
2018-12-16T19:38:39.465Z,32.20
2018-12-16T19:40:43.265Z,38.60
2018-12-16T19:42:46.889Z,41.20
2018-12-16T19:44:49.667Z,36.27
2018-12-16T19:46:52.531Z,36.03
2018-12-16T19:48:55.396Z,33.47
2018-12-16T19:50:59.378Z,34.73
2018-12-16T19:53:03.256Z,36.03
2018-12-16T19:55:07.206Z,38.73
2018-12-16T19:57:12.604Z,37.50
2018-12-16T19:59:16.405Z,34.73
2018-12-16T20:01:20.858Z,34.00
2018-12-16T20:03:23.619Z,30.67
2018-12-16T20:05:26.442Z,32.93
2018-12-16T20:07:29.078Z,28.77
2018-12-16T20:09:31.789Z,30.57
2018-12-16T20:11:34.381Z,28.20
2018-12-16T20:13:36.979Z,40.70
2018-12-16T20:15:39.966Z,29.80
2018-12-16T20:17:42.764Z,32.03
2018-12-16T20:19:45.390Z,41.93
2018-12-16T20:21:48.033Z,30.10
2018-12-16T20:23:50.669Z,29.33
2018-12-16T20:25:53.307Z,38.30
2018-12-16T20:27:56.458Z,31.37
2018-12-16T20:29:59.223Z,31.80
2018-12-16T20:32:01.854Z,29.50
2018-12-16T20:34:04.588Z,29.63
2018-12-16T20:36:07.287Z,30.50
2018-12-16T20:38:10.370Z,27.17
2018-12-16T20:40:13.024Z,31.40
2018-12-16T20:42:16.267Z,33.00
2018-12-16T20:44:18.929Z,31.00
2018-12-16T20:46:21.593Z,31.00
2018-12-16T20:48:24.230Z,28.17
2018-12-16T20:50:27.662Z,26.33
2018-12-16T20:52:30.280Z,30.73
2018-12-16T20:54:32.866Z,29.07
2018-12-16T20:56:36.359Z,29.43
2018-12-16T20:58:38.970Z,29.93
2018-12-16T21:00:41.582Z,38.67
2018-12-16T21:02:44.231Z,36.53
2018-12-16T21:04:46.870Z,33.73
2018-12-16T21:06:49.476Z,33.53
2018-12-16T21:08:52.100Z,33.10
2018-12-16T21:10:55.469Z,32.10
2018-12-16T21:13:03.877Z,30.47
2018-12-16T21:17:49.824Z,27.77
2018-12-16T21:19:52.453Z,28.07
2018-12-16T21:21:55.034Z,28.00
2018-12-16T21:23:57.727Z,29.17
2018-12-16T21:26:00.869Z,26.30
2018-12-16T21:28:03.517Z,28.10
2018-12-16T21:30:08.888Z,27.87
2018-12-16T21:32:13.566Z,27.40
2018-12-16T21:34:16.216Z,27.80
2018-12-16T21:36:19.686Z,30.43
2018-12-16T21:38:22.288Z,33.00
2018-12-16T21:40:25.097Z,31.20
2018-12-16T21:42:29.217Z,33.50
2018-12-16T21:44:31.846Z,32.77
2018-12-16T21:46:34.524Z,34.87
2018-12-16T21:48:37.742Z,35.03
2018-12-16T21:50:40.394Z,34.30
2018-12-16T21:52:42.968Z,39.53
2018-12-16T21:54:45.592Z,40.13
2018-12-16T21:56:48.876Z,44.47
2018-12-16T21:58:51.832Z,41.47
2018-12-16T22:00:54.631Z,43.27
2018-12-16T22:02:57.280Z,46.20
2018-12-16T22:04:59.929Z,51.20
2018-12-16T22:07:02.590Z,43.23
2018-12-16T22:09:07.661Z,42.27
2018-12-16T22:11:10.302Z,38.67
2018-12-16T22:13:12.883Z,38.97
2018-12-16T22:15:16.245Z,40.90
2018-12-16T22:17:19.462Z,38.87
2018-12-16T22:19:22.306Z,36.53
2018-12-16T22:21:24.948Z,34.50
2018-12-16T22:23:27.558Z,36.60
2018-12-16T22:25:30.176Z,29.33
2018-12-16T22:27:32.779Z,33.47
2018-12-16T22:29:35.631Z,31.00
2018-12-16T22:31:38.312Z,34.73
2018-12-16T22:33:40.897Z,30.13
2018-12-16T22:35:43.486Z,33.10
2018-12-16T22:37:46.156Z,36.73
2018-12-16T22:39:48.747Z,38.57
2018-12-16T22:41:51.863Z,38.43
2018-12-16T22:43:54.586Z,37.43
2018-12-16T22:45:57.189Z,36.20
2018-12-16T22:47:59.869Z,35.97
2018-12-16T22:50:02.597Z,34.80
2018-12-16T22:52:06.371Z,31.47
2018-12-16T22:54:08.995Z,35.07
2018-12-16T22:56:12.033Z,32.13
2018-12-16T22:58:14.676Z,27.97
2018-12-16T23:00:17.569Z,28.13
2018-12-16T23:02:20.221Z,25.70
2018-12-16T23:04:22.857Z,25.10
2018-12-16T23:06:25.449Z,26.27
2018-12-16T23:08:28.084Z,27.27
2018-12-16T23:10:30.721Z,26.33
2018-12-16T23:12:33.683Z,27.30
2018-12-16T23:14:36.535Z,26.13
2018-12-16T23:16:39.236Z,30.77
2018-12-16T23:18:41.885Z,30.83
2018-12-16T23:20:44.509Z,29.00
2018-12-16T23:22:47.260Z,28.03
2018-12-16T23:24:50.133Z,27.07
2018-12-16T23:26:52.890Z,27.67
2018-12-16T23:28:56.105Z,27.87
2018-12-16T23:30:58.682Z,26.43
2018-12-16T23:33:01.970Z,26.07
2018-12-16T23:35:05.086Z,24.10
2018-12-16T23:37:07.732Z,27.00
2018-12-16T23:39:10.373Z,26.23
2018-12-16T23:41:12.939Z,27.00
2018-12-16T23:43:16.319Z,33.47
2018-12-16T23:45:18.930Z,31.40
2018-12-16T23:47:21.605Z,34.77
2018-12-16T23:49:25.051Z,45.17
2018-12-16T23:51:27.656Z,40.63
2018-12-16T23:53:30.313Z,43.50
2018-12-16T23:55:32.919Z,39.70
2018-12-16T23:57:35.523Z,36.77
2018-12-16T23:59:38.100Z,34.13
